createdAt,value
2022-11-30T00:00:03.654Z,99.993896
2022-11-30T00:01:12.403Z,99.993896
2022-11-30T00:02:21.373Z,99.993896
2022-11-30T00:03:31.001Z,99.993896
2022-11-30T00:04:40.707Z,99.993896
2022-11-30T00:05:48.570Z,99.993896
2022-11-30T00:06:57.276Z,99.993896
2022-11-30T00:08:07.190Z,99.993896
2022-11-30T00:09:16.999Z,99.993896
2022-11-30T00:10:25.746Z,99.993896
2022-11-30T00:11:34.498Z,99.993896
2022-11-30T00:12:44.221Z,99.993896
2022-11-30T00:13:54.040Z,99.993896
2022-11-30T00:15:02.955Z,99.993896
2022-11-30T00:16:11.878Z,99.993896
2022-11-30T00:17:21.604Z,99.993896
2022-11-30T00:18:30.287Z,99.993896
2022-11-30T00:19:40.078Z,99.993896
2022-11-30T00:20:49.908Z,99.993896
2022-11-30T00:21:58.704Z,99.993896
2022-11-30T00:23:08.473Z,99.993896
2022-11-30T00:24:16.282Z,99.993896
2022-11-30T00:25:24.053Z,99.993896
2022-11-30T00:26:33.960Z,99.993896
2022-11-30T00:27:42.828Z,99.993896
2022-11-30T00:28:52.518Z,99.993896
2022-11-30T00:30:01.291Z,99.993896
2022-11-30T00:31:10.022Z,99.993896
2022-11-30T00:32:19.728Z,99.993896
2022-11-30T00:33:28.511Z,99.993896
2022-11-30T00:34:38.228Z,99.993896
2022-11-30T00:35:48.137Z,99.993896
2022-11-30T00:36:57.927Z,99.993896
2022-11-30T00:38:07.661Z,99.993896
2022-11-30T00:39:16.430Z,99.993896
2022-11-30T00:40:25.267Z,99.993896
2022-11-30T00:41:35.095Z,99.993896
2022-11-30T00:42:43.025Z,99.993896
2022-11-30T00:43:51.788Z,99.993896
2022-11-30T00:45:01.609Z,99.993896
2022-11-30T00:46:10.428Z,99.993896
2022-11-30T00:47:20.065Z,99.993896
2022-11-30T00:48:28.873Z,99.993896
2022-11-30T00:49:38.550Z,99.993896
2022-11-30T00:50:48.403Z,99.993896
2022-11-30T00:51:56.217Z,99.993896
2022-11-30T00:53:04.014Z,99.993896
2022-11-30T00:54:13.965Z,99.993896
2022-11-30T00:55:22.804Z,99.993896
2022-11-30T00:56:32.597Z,99.993896
2022-11-30T00:57:42.445Z,99.993896
2022-11-30T00:58:51.199Z,99.993896
2022-11-30T01:00:00.948Z,99.993896
2022-11-30T01:01:09.793Z,99.993896
2022-11-30T01:02:17.489Z,99.993896
2022-11-30T01:03:27.310Z,99.993896
2022-11-30T01:04:36.175Z,99.993896
2022-11-30T01:05:45.960Z,99.993896
2022-11-30T01:06:54.762Z,99.993896
2022-11-30T01:08:03.522Z,99.993896
2022-11-30T01:09:13.303Z,99.993896
2022-11-30T01:10:21.123Z,99.993896
2022-11-30T01:11:30.940Z,99.993896
2022-11-30T01:12:40.726Z,99.993896
2022-11-30T01:13:48.556Z,99.993896
2022-11-30T01:14:58.391Z,99.993896
2022-11-30T01:16:07.270Z,99.993896
2022-11-30T01:17:17.045Z,99.993896
2022-11-30T01:18:26.751Z,99.993896
2022-11-30T01:19:35.483Z,99.993896
2022-11-30T01:20:45.494Z,99.993896
2022-11-30T01:21:53.257Z,99.993896
2022-11-30T01:23:02.068Z,99.993896
2022-11-30T01:24:11.985Z,99.993896
2022-11-30T01:25:21.709Z,99.993896
2022-11-30T01:26:30.448Z,99.993896
2022-11-30T01:27:39.243Z,99.993896
2022-11-30T01:28:48.983Z,99.993896
2022-11-30T01:29:58.721Z,99.993896
2022-11-30T01:31:06.551Z,99.993896
2022-11-30T01:32:15.314Z,99.993896
2022-11-30T01:33:25.087Z,99.993896
2022-11-30T01:34:33.884Z,99.993896
2022-11-30T01:35:43.698Z,99.993896
2022-11-30T01:36:52.398Z,99.993896
2022-11-30T01:38:02.293Z,99.993896
2022-11-30T01:39:12.104Z,99.993896
2022-11-30T01:40:20.998Z,99.993896
2022-11-30T01:41:28.710Z,99.993896
2022-11-30T01:42:38.531Z,99.993896
2022-11-30T01:43:48.440Z,99.993896
2022-11-30T01:44:58.309Z,99.993896
2022-11-30T01:46:07.253Z,99.993896
2022-11-30T01:47:16.097Z,99.993896
2022-11-30T01:48:25.915Z,99.993896
2022-11-30T01:49:35.880Z,99.993896
2022-11-30T01:50:43.631Z,99.993896
2022-11-30T01:51:53.432Z,99.993896
2022-11-30T01:53:02.418Z,99.993896
2022-11-30T01:54:11.307Z,99.993896
2022-11-30T01:55:21.199Z,99.993896
2022-11-30T01:56:29.990Z,99.993896
2022-11-30T01:57:39.740Z,99.993896
2022-11-30T01:58:48.651Z,99.993896
2022-11-30T01:59:57.553Z,99.993896
2022-11-30T02:01:07.480Z,99.993896
2022-11-30T02:02:17.234Z,99.993896
2022-11-30T02:03:26.042Z,99.993896
2022-11-30T02:04:35.912Z,99.993896
2022-11-30T02:05:45.744Z,99.993896
2022-11-30T02:06:55.737Z,99.993896
2022-11-30T02:08:04.582Z,99.993896
2022-11-30T02:09:14.321Z,99.993896
2022-11-30T02:10:24.096Z,99.993896
2022-11-30T02:11:33.149Z,99.993896
2022-11-30T02:12:42.905Z,99.993896
2022-11-30T02:13:51.713Z,99.993896
2022-11-30T02:15:00.684Z,99.993896
2022-11-30T02:16:10.565Z,99.993896
2022-11-30T02:17:20.415Z,99.993896
2022-11-30T02:18:29.266Z,99.993896
2022-11-30T02:19:39.194Z,99.993896
2022-11-30T02:20:49.291Z,99.993896
2022-11-30T02:21:59.280Z,99.993896
2022-11-30T02:23:09.014Z,99.993896
2022-11-30T02:24:17.841Z,99.993896
2022-11-30T02:25:27.652Z,99.993896
2022-11-30T02:26:36.662Z,99.993896
2022-11-30T02:27:45.456Z,99.993896
2022-11-30T02:28:55.306Z,99.993896
2022-11-30T02:30:04.147Z,99.993896
2022-11-30T02:31:12.939Z,99.993896
2022-11-30T02:32:22.676Z,99.993896
2022-11-30T02:33:31.431Z,99.993896
2022-11-30T02:34:41.226Z,99.993896
2022-11-30T02:35:54.443Z,99.993896
2022-11-30T02:36:57.894Z,99.993896
2022-11-30T02:38:07.590Z,99.993896
2022-11-30T02:39:16.485Z,99.993896
2022-11-30T02:40:25.340Z,99.993896
2022-11-30T02:41:38.005Z,99.993896
2022-11-30T02:42:45.036Z,99.993896
2022-11-30T02:43:54.764Z,99.993896
2022-11-30T02:45:02.589Z,99.993896
2022-11-30T02:46:11.499Z,99.993896
2022-11-30T02:47:21.217Z,99.993896
2022-11-30T02:48:31.045Z,99.993896
2022-11-30T02:49:40.869Z,99.993896
2022-11-30T02:50:50.620Z,99.993896
2022-11-30T02:51:59.496Z,99.993896
2022-11-30T02:53:09.301Z,99.993896
2022-11-30T02:54:18.161Z,99.993896
2022-11-30T02:55:27.032Z,99.993896
2022-11-30T02:56:36.871Z,99.993896
2022-11-30T02:57:46.630Z,99.993896
2022-11-30T02:58:55.475Z,99.993896
2022-11-30T03:00:05.196Z,99.993896
2022-11-30T03:01:15.066Z,99.993896
2022-11-30T03:02:24.808Z,99.993896
2022-11-30T03:03:33.621Z,99.993896
2022-11-30T03:04:41.472Z,99.993896
2022-11-30T03:05:51.334Z,99.993896
2022-11-30T03:07:01.092Z,99.993896
2022-11-30T03:08:11.017Z,99.993896
2022-11-30T03:09:18.783Z,99.993896
2022-11-30T03:10:28.762Z,99.993896
2022-11-30T03:11:37.595Z,99.993896
2022-11-30T03:12:46.292Z,99.993896
2022-11-30T03:13:56.053Z,99.993896
2022-11-30T03:15:03.978Z,99.993896
2022-11-30T03:16:13.874Z,99.993896
2022-11-30T03:17:24.740Z,99.993896
2022-11-30T03:18:34.640Z,99.993896
2022-11-30T03:19:43.557Z,99.993896
2022-11-30T03:20:53.407Z,99.993896
2022-11-30T03:22:02.233Z,99.993896
2022-11-30T03:23:12.205Z,99.993896
2022-11-30T03:24:21.028Z,99.993896
2022-11-30T03:25:29.757Z,99.993896
2022-11-30T03:26:39.482Z,99.993896
2022-11-30T03:27:48.240Z,99.993896
2022-11-30T03:28:56.903Z,99.993896
2022-11-30T03:30:05.619Z,99.993896
2022-11-30T03:31:15.473Z,99.993896
2022-11-30T03:32:25.215Z,99.993896
2022-11-30T03:33:33.076Z,99.993896
2022-11-30T03:34:41.845Z,99.993896
2022-11-30T03:35:51.818Z,99.993896
2022-11-30T03:37:00.559Z,99.993896
2022-11-30T03:38:09.347Z,99.993896
2022-11-30T03:39:18.318Z,99.993896
2022-11-30T03:40:28.033Z,99.993896
2022-11-30T03:41:37.801Z,99.993896
2022-11-30T03:42:46.548Z,99.993896
2022-11-30T03:43:55.327Z,99.993896
2022-11-30T03:45:05.116Z,99.993896
2022-11-30T03:46:13.999Z,99.993896
2022-11-30T03:47:22.772Z,99.993896
2022-11-30T03:48:32.564Z,99.993896
2022-11-30T03:49:42.384Z,99.993896
2022-11-30T03:50:52.294Z,99.993896
2022-11-30T03:52:00.042Z,99.993896
2022-11-30T03:53:09.791Z,99.993896
2022-11-30T03:54:19.663Z,99.993896
2022-11-30T03:55:29.500Z,99.993896
2022-11-30T03:56:38.326Z,99.993896
2022-11-30T03:57:47.235Z,99.993896
2022-11-30T03:58:57.078Z,99.993896
2022-11-30T04:00:06.978Z,99.993896
2022-11-30T04:01:15.881Z,99.993896
2022-11-30T04:02:23.731Z,99.993896
2022-11-30T04:03:33.640Z,99.993896
2022-11-30T04:04:43.425Z,99.993896
2022-11-30T04:05:52.238Z,99.993896
2022-11-30T04:07:01.008Z,99.993896
2022-11-30T04:08:11.146Z,99.993896
2022-11-30T04:09:21.039Z,99.993896
2022-11-30T04:10:29.814Z,99.993896
2022-11-30T04:11:37.766Z,99.993896
2022-11-30T04:12:47.640Z,99.993896
2022-11-30T04:13:56.417Z,99.993896
2022-11-30T04:15:06.233Z,99.993896
2022-11-30T04:16:15.250Z,99.993896
2022-11-30T04:17:23.923Z,99.993896
2022-11-30T04:18:34.157Z,99.993896
2022-11-30T04:19:41.958Z,99.993896
2022-11-30T04:20:50.716Z,99.993896
2022-11-30T04:22:00.527Z,99.993896
2022-11-30T04:23:09.296Z,99.993896
2022-11-30T04:24:18.274Z,99.993896
2022-11-30T04:25:27.170Z,99.993896
2022-11-30T04:26:36.047Z,99.993896
2022-11-30T04:27:45.863Z,99.993896
2022-11-30T04:28:54.632Z,99.993896
2022-11-30T04:30:04.459Z,99.993896
2022-11-30T04:31:14.335Z,99.993896
2022-11-30T04:32:23.060Z,99.993896
2022-11-30T04:33:32.859Z,99.993896
2022-11-30T04:34:41.604Z,99.993896
2022-11-30T04:35:51.458Z,99.993896
2022-11-30T04:37:01.227Z,99.993896
2022-11-30T04:38:09.144Z,99.993896
2022-11-30T04:39:19.024Z,99.993896
2022-11-30T04:40:28.976Z,99.993896
2022-11-30T04:41:37.789Z,99.993896
2022-11-30T04:42:47.764Z,99.993896
2022-11-30T04:43:56.632Z,99.993896
2022-11-30T04:45:06.388Z,99.993896
2022-11-30T04:46:16.384Z,99.993896
2022-11-30T04:47:25.112Z,99.993896
2022-11-30T04:48:33.061Z,99.993896
2022-11-30T04:49:43.046Z,99.993896
2022-11-30T04:50:51.988Z,99.993896
2022-11-30T04:52:01.810Z,99.993896
2022-11-30T04:53:11.607Z,99.993896
2022-11-30T04:54:20.516Z,99.993896
2022-11-30T04:55:30.300Z,99.993896
2022-11-30T04:56:38.115Z,99.993896
2022-11-30T04:57:45.904Z,99.993896
2022-11-30T04:58:55.617Z,99.993896
2022-11-30T05:00:05.345Z,99.993896
2022-11-30T05:01:14.240Z,99.993896
2022-11-30T05:02:24.345Z,99.993896
2022-11-30T05:03:34.072Z,99.993896
2022-11-30T05:04:43.978Z,99.993896
2022-11-30T05:05:51.863Z,99.993896
2022-11-30T05:07:01.685Z,99.993896
2022-11-30T05:08:10.499Z,99.993896
2022-11-30T05:09:19.301Z,99.993896
2022-11-30T05:10:29.156Z,99.993896
2022-11-30T05:11:39.279Z,99.993896
2022-11-30T05:12:49.099Z,99.993896
2022-11-30T05:13:57.825Z,99.993896
2022-11-30T05:15:06.642Z,99.993896
2022-11-30T05:16:16.598Z,99.993896
2022-11-30T05:17:24.347Z,99.993896
2022-11-30T05:18:32.169Z,99.993896
2022-11-30T05:19:42.124Z,99.993896
2022-11-30T05:20:52.073Z,99.993896
2022-11-30T05:22:00.914Z,99.993896
2022-11-30T05:23:09.900Z,99.993896
2022-11-30T05:24:19.693Z,99.993896
2022-11-30T05:25:29.527Z,99.993896
2022-11-30T05:26:38.318Z,99.993896
2022-11-30T05:27:47.106Z,99.993896
2022-11-30T05:28:57.121Z,99.993896
2022-11-30T05:30:06.055Z,99.993896
2022-11-30T05:31:14.841Z,99.993896
2022-11-30T05:32:23.578Z,99.993896
2022-11-30T05:33:33.475Z,99.993896
2022-11-30T05:34:50.456Z,99.993896
2022-11-30T05:35:54.248Z,99.993896
2022-11-30T05:37:03.154Z,99.993896
2022-11-30T05:38:13.102Z,99.993896
2022-11-30T05:39:21.917Z,99.993896
2022-11-30T05:40:30.952Z,99.993896
2022-11-30T05:41:40.813Z,99.993896
2022-11-30T05:42:49.645Z,99.993896
2022-11-30T05:43:59.643Z,99.993896
2022-11-30T05:45:07.541Z,99.993896
2022-11-30T05:46:16.609Z,99.993896
2022-11-30T05:47:26.334Z,99.993896
2022-11-30T05:48:36.222Z,99.993896
2022-11-30T05:49:46.004Z,99.993896
2022-11-30T05:50:54.834Z,99.993896
2022-11-30T05:52:04.652Z,99.993896
2022-11-30T05:53:14.560Z,99.993896
2022-11-30T05:54:25.318Z,99.993896
2022-11-30T05:55:35.188Z,99.993896
2022-11-30T05:56:44.874Z,99.993896
2022-11-30T05:57:55.611Z,99.993896
2022-11-30T05:59:04.368Z,99.993896
2022-11-30T06:00:14.109Z,99.993896
2022-11-30T06:01:22.934Z,99.993896
2022-11-30T06:02:32.758Z,99.993896
2022-11-30T06:03:42.346Z,99.993896
2022-11-30T06:04:50.161Z,99.993896
2022-11-30T06:05:59.704Z,99.993896
2022-11-30T06:07:08.402Z,99.993896
2022-11-30T06:08:17.219Z,99.993896
2022-11-30T06:09:26.912Z,99.993896
2022-11-30T06:10:36.575Z,99.993896
2022-11-30T06:11:46.265Z,99.993896
2022-11-30T06:12:54.913Z,99.993896
2022-11-30T06:14:03.790Z,99.993896
2022-11-30T06:15:13.304Z,99.993896
2022-11-30T06:16:22.043Z,99.993896
2022-11-30T06:17:30.669Z,99.993896
2022-11-30T06:18:39.335Z,99.993896
2022-11-30T06:19:48.006Z,99.993896
2022-11-30T06:20:57.720Z,99.993896
2022-11-30T06:22:06.399Z,99.993896
2022-11-30T06:23:16.070Z,99.993896
2022-11-30T06:24:25.755Z,99.993896
2022-11-30T06:25:35.427Z,99.993896
2022-11-30T06:26:45.117Z,99.993896
2022-11-30T06:27:54.821Z,99.993896
2022-11-30T06:29:04.451Z,99.993896
2022-11-30T06:30:13.120Z,99.993896
2022-11-30T06:31:21.892Z,99.993896
2022-11-30T06:32:30.499Z,99.993896
2022-11-30T06:33:40.188Z,99.993896
2022-11-30T06:34:49.984Z,99.993896
2022-11-30T06:35:59.531Z,99.993896
2022-11-30T06:37:08.201Z,99.993896
2022-11-30T06:38:16.872Z,99.993896
2022-11-30T06:39:43.292Z,99.993896
2022-11-30T06:40:37.188Z,99.993896
2022-11-30T06:41:44.851Z,99.993896
2022-11-30T06:42:55.503Z,99.993896
2022-11-30T06:44:05.244Z,99.993896
2022-11-30T06:45:14.879Z,99.993896
2022-11-30T06:46:23.550Z,99.993896
2022-11-30T06:47:31.212Z,99.993896
2022-11-30T06:48:40.869Z,99.993896
2022-11-30T06:49:48.670Z,99.993896
2022-11-30T06:50:57.348Z,99.993896
2022-11-30T06:52:07.017Z,99.993896
2022-11-30T06:53:15.670Z,99.993896
2022-11-30T06:54:24.320Z,99.993896
2022-11-30T06:55:34.019Z,99.993896
2022-11-30T06:56:43.670Z,99.993896
2022-11-30T06:57:53.349Z,99.993896
2022-11-30T06:59:01.017Z,99.993896
2022-11-30T07:00:08.714Z,99.993896
2022-11-30T07:01:18.432Z,99.993896
2022-11-30T07:02:27.075Z,99.993896
2022-11-30T07:03:36.722Z,99.993896
2022-11-30T07:04:45.639Z,99.993896
2022-11-30T07:05:54.057Z,99.993896
2022-11-30T07:07:02.756Z,99.993896
2022-11-30T07:08:11.438Z,99.993896
2022-11-30T07:09:21.092Z,99.993896
2022-11-30T07:10:30.768Z,99.993896
2022-11-30T07:11:40.432Z,99.993896
2022-11-30T07:12:50.112Z,99.993896
2022-11-30T07:13:58.772Z,99.993896
2022-11-30T07:15:07.430Z,99.993896
2022-11-30T07:16:16.161Z,99.993896
2022-11-30T07:17:24.769Z,99.993896
2022-11-30T07:18:34.592Z,99.993896
2022-11-30T07:19:42.260Z,99.993896
2022-11-30T07:20:50.942Z,99.993896
2022-11-30T07:22:00.612Z,99.993896
2022-11-30T07:23:09.288Z,99.993896
2022-11-30T07:24:19.042Z,99.993896
2022-11-30T07:25:27.717Z,99.993896
2022-11-30T07:26:36.534Z,99.993896
2022-11-30T07:27:46.205Z,99.993896
2022-11-30T07:28:53.872Z,99.993896
2022-11-30T07:30:02.564Z,99.993896
2022-11-30T07:31:16.152Z,99.993896
2022-11-30T07:32:20.953Z,99.993896
2022-11-30T07:33:29.591Z,99.993896
2022-11-30T07:34:38.296Z,99.993896
2022-11-30T07:35:47.987Z,99.993896
2022-11-30T07:36:57.660Z,99.993896
2022-11-30T07:38:09.564Z,99.993896
2022-11-30T07:39:12.954Z,99.993896
2022-11-30T07:40:22.656Z,99.993896
2022-11-30T07:41:32.331Z,99.993896
2022-11-30T07:42:40.995Z,99.993896
2022-11-30T07:43:49.656Z,99.993896
2022-11-30T07:44:59.767Z,99.993896
2022-11-30T07:46:09.030Z,99.993896
2022-11-30T07:47:17.751Z,99.993896
2022-11-30T07:48:25.490Z,99.993896
2022-11-30T07:49:35.147Z,99.993896
2022-11-30T07:50:44.860Z,99.993896
2022-11-30T07:51:54.594Z,99.993896
2022-11-30T07:53:04.523Z,99.993896
2022-11-30T07:54:13.187Z,99.993896
2022-11-30T07:55:22.853Z,99.993896
2022-11-30T07:56:30.516Z,99.993896
2022-11-30T07:57:39.224Z,99.993896
2022-11-30T07:58:48.901Z,99.993896
2022-11-30T07:59:57.556Z,99.993896
2022-11-30T08:01:06.353Z,99.993896
2022-11-30T08:02:15.010Z,99.993896
2022-11-30T08:03:24.572Z,99.993896
2022-11-30T08:04:35.357Z,99.993896
2022-11-30T08:05:44.097Z,99.993896
2022-11-30T08:06:51.790Z,99.993896
2022-11-30T08:08:01.511Z,99.993896
2022-11-30T08:09:10.115Z,99.993896
2022-11-30T08:10:19.777Z,99.993896
2022-11-30T08:11:28.433Z,99.993896
2022-11-30T08:12:37.144Z,99.993896
2022-11-30T08:13:46.808Z,99.993896
2022-11-30T08:15:19.175Z,99.993896
2022-11-30T08:16:06.146Z,99.993896
2022-11-30T08:17:15.789Z,99.993896
2022-11-30T08:18:24.455Z,99.993896
2022-11-30T08:19:33.167Z,99.993896
2022-11-30T08:20:47.006Z,99.993896
2022-11-30T08:21:52.575Z,99.993896
2022-11-30T08:23:02.247Z,99.993896
2022-11-30T08:24:10.940Z,99.993896
2022-11-30T08:25:18.567Z,99.993896
2022-11-30T08:26:28.242Z,99.993896
2022-11-30T08:27:36.952Z,99.993896
2022-11-30T08:28:45.610Z,99.993896
2022-11-30T08:29:54.290Z,99.993896
2022-11-30T08:31:02.983Z,99.993896
2022-11-30T08:32:12.648Z,99.993896
2022-11-30T08:33:20.327Z,99.993896
2022-11-30T08:34:28.004Z,99.993896
2022-11-30T08:35:37.681Z,99.993896
2022-11-30T08:36:51.672Z,99.993896
2022-11-30T08:37:55.992Z,99.993896
2022-11-30T08:39:04.679Z,99.993896
2022-11-30T08:40:14.349Z,99.993896
2022-11-30T08:41:24.013Z,99.993896
2022-11-30T08:42:31.729Z,99.993896
2022-11-30T08:43:39.404Z,99.993896
2022-11-30T08:44:49.056Z,99.993896
2022-11-30T08:45:57.757Z,99.993896
2022-11-30T08:47:06.435Z,99.993896
2022-11-30T08:48:15.147Z,99.993896
2022-11-30T08:49:25.333Z,99.993896
2022-11-30T08:50:34.473Z,99.993896
2022-11-30T08:52:15.230Z,99.993896
2022-11-30T08:52:52.790Z,99.993896
2022-11-30T08:54:03.448Z,99.993896
2022-11-30T08:55:12.103Z,99.993896
2022-11-30T08:56:21.905Z,99.993896
2022-11-30T08:57:30.573Z,99.993896
2022-11-30T08:58:39.229Z,99.993896
2022-11-30T08:59:48.898Z,99.993896
2022-11-30T09:00:56.553Z,99.993896
2022-11-30T09:02:06.367Z,99.993896
2022-11-30T09:03:15.915Z,99.993896
2022-11-30T09:04:25.566Z,99.993896
2022-11-30T09:05:35.249Z,99.993896
2022-11-30T09:06:44.916Z,99.993896
2022-11-30T09:07:53.629Z,99.993896
2022-11-30T09:09:03.312Z,99.993896
2022-11-30T09:10:12.947Z,99.993896
2022-11-30T09:11:22.623Z,99.993896
2022-11-30T09:12:31.288Z,99.993896
2022-11-30T09:13:40.975Z,99.993896
2022-11-30T09:14:56.019Z,99.993896
2022-11-30T09:16:00.393Z,99.993896
2022-11-30T09:17:09.970Z,99.993896
2022-11-30T09:18:19.645Z,99.993896
2022-11-30T09:19:29.340Z,99.993896
2022-11-30T09:20:39.008Z,99.993896
2022-11-30T09:21:51.743Z,99.993896
2022-11-30T09:22:56.317Z,99.993896
2022-11-30T09:24:06.042Z,99.993896
2022-11-30T09:25:15.794Z,99.993896
2022-11-30T09:26:23.474Z,99.993896
2022-11-30T09:27:33.186Z,99.993896
2022-11-30T09:28:41.820Z,99.871826
2022-11-30T09:29:51.571Z,99.664307
2022-11-30T09:31:00.290Z,99.456787
2022-11-30T09:32:08.919Z,99.353027
2022-11-30T09:33:18.595Z,99.353027
2022-11-30T09:34:27.320Z,99.249268
2022-11-30T09:35:36.983Z,99.249268
2022-11-30T09:36:45.674Z,99.353027
2022-11-30T09:37:54.336Z,99.719238
2022-11-30T09:39:03.001Z,99.615479
2022-11-30T09:40:11.739Z,99.414062
2022-11-30T09:41:21.389Z,99.102783
2022-11-30T09:42:31.109Z,98.791504
2022-11-30T09:43:39.793Z,98.895264
2022-11-30T09:44:48.819Z,98.791504
2022-11-30T09:45:58.169Z,98.687744
2022-11-30T09:47:07.808Z,98.480225
2022-11-30T09:48:17.507Z,98.272705
2022-11-30T09:49:26.190Z,97.705078
2022-11-30T09:50:34.857Z,97.497559
2022-11-30T09:51:44.529Z,97.290039
2022-11-30T09:52:54.223Z,97.192383
2022-11-30T09:54:02.912Z,97.088623
2022-11-30T09:55:11.572Z,96.881104
2022-11-30T09:56:21.249Z,96.569824
2022-11-30T09:57:30.907Z,95.843506
2022-11-30T09:58:39.603Z,95.739746
2022-11-30T09:59:48.290Z,95.947266
2022-11-30T10:00:57.993Z,96.209717
2022-11-30T10:02:07.731Z,96.209717
2022-11-30T10:03:17.417Z,95.904541
2022-11-30T10:04:26.002Z,95.904541
2022-11-30T10:05:34.682Z,95.904541
2022-11-30T10:06:44.352Z,95.904541
2022-11-30T10:07:53.127Z,96.112061
2022-11-30T10:09:00.709Z,96.112061
2022-11-30T10:11:21.073Z,96.112061
2022-11-30T10:12:29.781Z,95.800781
2022-11-30T10:13:39.440Z,95.178223
2022-11-30T10:14:48.409Z,95.013428
2022-11-30T10:15:58.848Z,95.220947
2022-11-30T10:17:06.481Z,95.739746
2022-11-30T10:18:14.144Z,95.428467
2022-11-30T10:19:23.815Z,95.220947
2022-11-30T10:20:32.471Z,95.532227
2022-11-30T10:21:41.145Z,95.843506
2022-11-30T10:22:49.846Z,95.947266
2022-11-30T10:23:59.537Z,96.154785
2022-11-30T10:25:11.983Z,96.362305
2022-11-30T10:26:18.852Z,96.154785
2022-11-30T10:27:26.511Z,95.843506
2022-11-30T10:28:51.574Z,95.532227
2022-11-30T10:29:46.957Z,95.532227
2022-11-30T10:30:55.741Z,95.947266
2022-11-30T10:32:04.283Z,96.09375
2022-11-30T10:33:13.941Z,96.30127
2022-11-30T10:34:23.649Z,96.362305
2022-11-30T10:35:31.318Z,96.154785
2022-11-30T10:36:38.984Z,96.466064
2022-11-30T10:37:48.665Z,96.673584
2022-11-30T10:38:57.323Z,96.569824
2022-11-30T10:40:07.023Z,96.258545
2022-11-30T10:41:15.709Z,96.362305
2022-11-30T10:42:25.427Z,96.362305
2022-11-30T10:43:35.100Z,96.154785
2022-11-30T10:44:43.788Z,95.843506
2022-11-30T10:45:52.583Z,95.843506
2022-11-30T10:47:02.140Z,95.843506
2022-11-30T10:48:11.827Z,95.324707
2022-11-30T10:49:20.488Z,95.324707
2022-11-30T10:50:29.150Z,95.324707
2022-11-30T10:51:37.853Z,95.220947
2022-11-30T10:52:47.689Z,95.178223
2022-11-30T10:53:55.480Z,95.281982
2022-11-30T10:55:05.424Z,94.805908
2022-11-30T10:56:14.802Z,94.287109
2022-11-30T10:57:23.511Z,94.07959
2022-11-30T10:58:32.197Z,93.97583
2022-11-30T10:59:41.855Z,94.18335
2022-11-30T11:00:51.562Z,94.494629
2022-11-30T11:02:01.322Z,94.805908
2022-11-30T11:03:11.101Z,94.909668
2022-11-30T11:04:20.751Z,94.702148
2022-11-30T11:05:30.396Z,94.348145
2022-11-30T11:06:38.103Z,94.451904
2022-11-30T11:07:47.788Z,94.451904
2022-11-30T11:08:56.441Z,94.140625
2022-11-30T11:10:06.114Z,94.348145
2022-11-30T11:11:15.785Z,94.451904
2022-11-30T11:12:25.443Z,94.40918
2022-11-30T11:13:35.104Z,94.20166
2022-11-30T11:14:42.812Z,93.994141
2022-11-30T11:15:51.541Z,93.786621
2022-11-30T11:17:01.175Z,93.621826
2022-11-30T11:18:09.800Z,93.725586
2022-11-30T11:19:18.469Z,93.518066
2022-11-30T11:20:28.188Z,93.621826
2022-11-30T11:21:36.870Z,94.140625
2022-11-30T11:22:46.532Z,94.140625
2022-11-30T11:23:55.224Z,93.933105
2022-11-30T11:25:03.907Z,93.933105
2022-11-30T11:26:13.589Z,93.97583
2022-11-30T11:27:22.271Z,94.244385
2022-11-30T11:28:32.012Z,94.348145
2022-11-30T11:29:40.596Z,94.348145
2022-11-30T11:30:49.379Z,94.348145
2022-11-30T11:31:59.146Z,94.140625
2022-11-30T11:33:08.821Z,94.348145
2022-11-30T11:34:16.466Z,94.555664
2022-11-30T11:35:26.149Z,94.763184
2022-11-30T11:36:34.802Z,94.555664
2022-11-30T11:37:44.512Z,93.518066
2022-11-30T11:38:53.188Z,93.310547
2022-11-30T11:40:02.864Z,93.621826
2022-11-30T11:41:12.523Z,93.310547
2022-11-30T11:42:22.024Z,93.414307
2022-11-30T11:43:27.882Z,93.933105
2022-11-30T11:44:37.560Z,94.140625
2022-11-30T11:45:47.233Z,93.933105
2022-11-30T11:46:55.903Z,94.036865
2022-11-30T11:48:05.573Z,93.621826
2022-11-30T11:49:15.282Z,94.036865
2022-11-30T11:50:50.175Z,93.933105
2022-11-30T11:51:35.559Z,93.829346
2022-11-30T11:52:43.220Z,93.933105
2022-11-30T11:53:53.754Z,93.829346
2022-11-30T11:55:01.558Z,93.414307
2022-11-30T11:56:10.230Z,93.457031
2022-11-30T11:57:17.904Z,93.664551
2022-11-30T11:58:26.582Z,93.87207
2022-11-30T11:59:36.264Z,94.07959
2022-11-30T12:00:46.024Z,94.07959
2022-11-30T12:01:54.714Z,94.390869
2022-11-30T12:03:04.435Z,94.287109
2022-11-30T12:04:13.119Z,94.494629
2022-11-30T12:05:22.779Z,94.494629
2022-11-30T12:06:32.594Z,94.763184
2022-11-30T12:07:42.285Z,94.866943
2022-11-30T12:08:51.951Z,94.659424
2022-11-30T12:10:01.611Z,94.244385
2022-11-30T12:11:11.284Z,93.97583
2022-11-30T12:12:21.830Z,93.664551
2022-11-30T12:13:30.482Z,93.97583
2022-11-30T12:14:38.150Z,93.97583
2022-11-30T12:15:46.834Z,94.18335
2022-11-30T12:16:56.478Z,94.18335
2022-11-30T12:18:10.630Z,94.07959
2022-11-30T12:19:16.829Z,93.87207
2022-11-30T12:20:25.534Z,94.07959
2022-11-30T12:21:35.179Z,94.702148
2022-11-30T12:22:44.836Z,94.702148
2022-11-30T12:23:53.519Z,94.702148
2022-11-30T12:25:05.854Z,94.702148
2022-11-30T12:26:11.876Z,94.390869
2022-11-30T12:27:21.511Z,94.287109
2022-11-30T12:28:29.187Z,94.18335
2022-11-30T12:29:36.904Z,93.87207
2022-11-30T12:30:46.586Z,94.07959
2022-11-30T12:31:56.270Z,94.140625
2022-11-30T12:33:05.955Z,94.07959
2022-11-30T12:34:14.616Z,93.725586
2022-11-30T12:35:23.402Z,93.457031
2022-11-30T12:36:33.128Z,93.518066
2022-11-30T12:37:47.257Z,93.414307
2022-11-30T12:38:50.400Z,93.103027
2022-11-30T12:40:00.088Z,92.999268
2022-11-30T12:41:08.761Z,93.414307
2022-11-30T12:42:18.428Z,93.933105
2022-11-30T12:43:28.101Z,94.244385
2022-11-30T12:44:42.021Z,93.890381
2022-11-30T12:45:47.422Z,93.475342
2022-11-30T12:46:56.214Z,93.579102
2022-11-30T12:48:04.832Z,93.579102
2022-11-30T12:49:14.552Z,93.579102
2022-11-30T12:50:23.181Z,93.060303
2022-11-30T12:51:31.834Z,92.852783
2022-11-30T12:52:40.687Z,92.443848
2022-11-30T12:53:50.343Z,92.755127
2022-11-30T12:55:00.037Z,92.443848
2022-11-30T12:56:08.712Z,92.755127
2022-11-30T12:57:18.388Z,93.060303
2022-11-30T12:58:28.073Z,93.579102
2022-11-30T12:59:36.778Z,93.579102
2022-11-30T13:00:46.524Z,93.579102
2022-11-30T13:01:55.187Z,93.371582
2022-11-30T13:03:03.793Z,93.164062
2022-11-30T13:04:12.539Z,92.547607
2022-11-30T13:05:22.225Z,92.651367
2022-11-30T13:06:31.907Z,92.028809
2022-11-30T13:07:39.641Z,92.236328
2022-11-30T13:08:47.324Z,92.443848
2022-11-30T13:09:57.148Z,92.443848